createdAt,value
2022-08-11T00:00:13.841Z,25.20
2022-08-11T00:02:44.066Z,25.20
2022-08-11T00:05:15.071Z,25.20
2022-08-11T00:07:51.421Z,25.20
2022-08-11T00:10:27.799Z,25.20
2022-08-11T00:12:58.584Z,25.20
2022-08-11T00:15:27.143Z,25.20
2022-08-11T00:18:00.077Z,25.20
2022-08-11T00:20:35.339Z,25.10
2022-08-11T00:23:14.182Z,25.10
2022-08-11T00:25:51.918Z,25.10
2022-08-11T00:28:33.701Z,25.10
2022-08-11T00:31:06.258Z,25.10
2022-08-11T00:33:45.196Z,25.10
2022-08-11T00:36:15.779Z,25.10
2022-08-11T00:38:45.192Z,25.10
2022-08-11T00:41:41.750Z,25.00
2022-08-11T00:44:26.811Z,25.00
2022-08-11T00:47:28.981Z,25.00
2022-08-11T00:50:01.421Z,25.00
2022-08-11T00:52:40.600Z,25.00
2022-08-11T00:55:55.925Z,24.90
2022-08-11T00:58:50.686Z,24.90
2022-08-11T01:01:17.813Z,24.90
2022-08-11T01:04:22.103Z,24.90
2022-08-11T01:07:14.694Z,24.80
2022-08-11T01:10:07.541Z,24.80
2022-08-11T01:12:44.055Z,24.80
2022-08-11T01:15:32.298Z,24.80
2022-08-11T01:18:17.161Z,24.80
2022-08-11T01:21:07.840Z,24.70
2022-08-11T01:24:19.520Z,24.70
2022-08-11T01:27:03.169Z,24.70
2022-08-11T01:30:03.576Z,24.70
2022-08-11T01:32:36.162Z,24.70
2022-08-11T01:35:24.449Z,24.70
2022-08-11T01:38:14.982Z,24.70
2022-08-11T01:41:03.075Z,24.70
2022-08-11T01:43:48.302Z,24.70
2022-08-11T01:46:32.503Z,24.70
2022-08-11T01:49:29.058Z,24.70
2022-08-11T01:52:18.616Z,24.70
2022-08-11T01:55:26.776Z,24.70
2022-08-11T01:58:19.904Z,24.70
2022-08-11T02:01:05.780Z,24.60
2022-08-11T02:03:44.679Z,24.60
2022-08-11T02:06:40.937Z,24.60
2022-08-11T02:09:17.209Z,24.60
2022-08-11T02:11:49.433Z,24.60
2022-08-11T02:14:34.184Z,24.60
2022-08-11T02:17:21.164Z,24.60
2022-08-11T02:20:22.117Z,24.60
2022-08-11T02:23:58.685Z,24.60
2022-08-11T02:26:24.774Z,24.60
2022-08-11T02:29:30.985Z,24.60
2022-08-11T02:32:39.028Z,24.50
2022-08-11T02:35:14.727Z,24.50
2022-08-11T02:38:00.897Z,24.50
2022-08-11T02:40:56.707Z,24.50
2022-08-11T02:43:41.130Z,24.50
2022-08-11T02:47:00.224Z,24.50
2022-08-11T02:50:06.366Z,24.50
2022-08-11T02:52:49.334Z,24.40
2022-08-11T02:56:08.651Z,24.40
2022-08-11T02:59:21.832Z,24.30
2022-08-11T03:02:05.188Z,24.30
2022-08-11T03:04:51.317Z,24.20
2022-08-11T03:07:28.832Z,24.20
2022-08-11T03:10:09.843Z,24.20
2022-08-11T03:13:19.907Z,24.20
2022-08-11T03:16:26.453Z,24.10
2022-08-11T03:19:12.645Z,24.10
2022-08-11T03:22:07.412Z,24.10
2022-08-11T03:24:40.087Z,24.10
2022-08-11T03:27:24.131Z,24.10
2022-08-11T03:30:08.178Z,24.10
2022-08-11T03:33:24.094Z,24.10
2022-08-11T03:36:25.964Z,24.10
2022-08-11T03:39:13.244Z,24.10
2022-08-11T03:42:02.610Z,24.00
2022-08-11T03:45:13.470Z,24.00
2022-08-11T03:47:57.005Z,24.00
2022-08-11T03:50:55.385Z,24.00
2022-08-11T03:53:46.587Z,24.00
2022-08-11T03:56:50.280Z,23.90
2022-08-11T03:59:17.159Z,23.90
2022-08-11T04:02:10.099Z,23.90
2022-08-11T04:05:13.595Z,23.90
2022-08-11T04:08:04.434Z,23.90
2022-08-11T04:10:48.302Z,23.90
2022-08-11T04:13:32.917Z,23.90
2022-08-11T04:16:15.915Z,23.90
2022-08-11T04:19:29.821Z,23.90
2022-08-11T04:22:32.991Z,23.80
2022-08-11T04:25:10.785Z,23.90
2022-08-11T04:27:56.174Z,23.90
2022-08-11T04:30:44.740Z,23.90
2022-08-11T04:33:35.032Z,23.90
2022-08-11T04:36:09.501Z,23.80
2022-08-11T04:38:46.041Z,23.80
2022-08-11T04:42:08.870Z,23.80
2022-08-11T04:44:53.824Z,23.80
2022-08-11T04:48:08.544Z,23.80
2022-08-11T04:51:27.784Z,23.80
2022-08-11T04:55:04.323Z,23.70
2022-08-11T04:58:20.576Z,23.70
2022-08-11T05:01:26.709Z,23.70
2022-08-11T05:04:32.238Z,23.70
2022-08-11T05:07:31.572Z,23.80
2022-08-11T05:10:45.975Z,23.80
2022-08-11T05:13:43.237Z,23.80
2022-08-11T05:16:34.680Z,23.80
2022-08-11T05:19:21.142Z,23.80
2022-08-11T05:22:12.766Z,23.70
2022-08-11T05:25:15.640Z,23.80
2022-08-11T05:28:51.607Z,23.80
2022-08-11T05:31:41.065Z,23.80
2022-08-11T05:34:26.408Z,23.90
2022-08-11T05:37:23.941Z,23.90
2022-08-11T05:40:10.045Z,23.90
2022-08-11T05:43:02.007Z,23.90
2022-08-11T05:46:02.636Z,23.90
2022-08-11T05:48:54.962Z,23.90
2022-08-11T05:51:52.320Z,23.90
2022-08-11T05:54:42.527Z,23.90
2022-08-11T05:57:48.919Z,23.80
2022-08-11T06:00:15.789Z,23.80
2022-08-11T06:02:55.229Z,23.70
2022-08-11T06:05:22.799Z,23.70
2022-08-11T06:07:56.956Z,23.70
2022-08-11T06:10:33.231Z,23.70
2022-08-11T06:13:01.195Z,23.70
2022-08-11T06:15:30.087Z,23.70
2022-08-11T06:17:58.887Z,23.70
2022-08-11T06:20:26.011Z,23.70
2022-08-11T06:23:03.581Z,23.70
2022-08-11T06:25:32.813Z,23.60
2022-08-11T06:28:00.746Z,23.60
2022-08-11T06:30:47.088Z,23.60
2022-08-11T06:33:33.436Z,23.60
2022-08-11T06:36:10.988Z,23.60
2022-08-11T06:39:12.524Z,23.60
2022-08-11T06:41:54.287Z,23.70
2022-08-11T06:44:39.793Z,23.70
2022-08-11T06:47:10.159Z,23.80
2022-08-11T06:50:04.483Z,23.80
2022-08-11T06:52:36.656Z,23.90
2022-08-11T06:55:58.039Z,23.90
2022-08-11T06:58:49.508Z,24.00
2022-08-11T07:01:21.229Z,24.00
2022-08-11T07:03:58.320Z,24.10
2022-08-11T07:07:12.390Z,24.00
2022-08-11T07:10:13.109Z,24.00
2022-08-11T07:13:09.162Z,24.10
2022-08-11T07:16:12.655Z,24.10
2022-08-11T07:19:00.510Z,24.10
2022-08-11T07:22:02.972Z,24.20
2022-08-11T07:25:01.317Z,24.20
2022-08-11T07:27:56.063Z,24.20
2022-08-11T07:30:31.850Z,24.20
2022-08-11T07:33:01.736Z,24.20
2022-08-11T07:35:33.870Z,24.20
2022-08-11T07:38:11.682Z,24.20
2022-08-11T07:40:39.118Z,24.30
2022-08-11T07:43:07.076Z,24.30
2022-08-11T07:45:53.300Z,24.40
2022-08-11T07:48:39.318Z,24.40
2022-08-11T07:51:24.875Z,24.50
2022-08-11T07:53:58.504Z,24.40
2022-08-11T07:56:55.255Z,24.40
2022-08-11T08:00:03.760Z,24.40
2022-08-11T08:02:49.421Z,24.50
2022-08-11T08:05:36.223Z,24.50
2022-08-11T08:08:21.990Z,24.60
2022-08-11T08:11:08.438Z,24.60
2022-08-11T08:13:55.777Z,24.60
2022-08-11T08:16:41.348Z,24.60
2022-08-11T08:19:11.169Z,24.70
2022-08-11T08:21:39.254Z,24.70
2022-08-11T08:24:07.363Z,24.70
2022-08-11T08:27:03.502Z,24.70
2022-08-11T08:29:52.974Z,24.70
2022-08-11T08:32:22.177Z,24.80
2022-08-11T08:34:54.975Z,24.80
2022-08-11T08:37:47.203Z,24.80
2022-08-11T08:40:14.499Z,24.70
2022-08-11T08:42:53.503Z,24.70
2022-08-11T08:45:20.923Z,24.70
2022-08-11T08:47:54.883Z,24.80
2022-08-11T08:50:27.496Z,24.80
2022-08-11T08:53:05.893Z,24.80
2022-08-11T08:55:33.684Z,24.90
2022-08-11T08:58:01.059Z,24.90
2022-08-11T09:00:42.887Z,24.90
2022-08-11T09:03:36.448Z,24.90
2022-08-11T09:05:58.457Z,24.90
2022-08-11T09:08:25.659Z,25.00
2022-08-11T09:11:14.034Z,25.00
2022-08-11T09:13:44.233Z,25.00
2022-08-11T09:16:13.457Z,25.10
2022-08-11T09:18:44.551Z,25.00
2022-08-11T09:21:14.684Z,25.20
2022-08-11T09:24:26.103Z,25.20
2022-08-11T09:27:00.212Z,25.20
2022-08-11T09:29:29.014Z,25.20
2022-08-11T09:31:57.020Z,25.30
2022-08-11T09:34:26.412Z,25.30
2022-08-11T09:37:13.507Z,25.30
2022-08-11T09:40:15.538Z,25.20
2022-08-11T09:43:02.625Z,25.30
2022-08-11T09:45:39.893Z,25.40
2022-08-11T09:48:07.846Z,25.40
2022-08-11T09:50:38.226Z,25.40
2022-08-11T09:53:36.681Z,25.40
2022-08-11T09:55:53.674Z,25.40
2022-08-11T09:58:41.633Z,25.30
2022-08-11T10:01:26.967Z,25.30
2022-08-11T10:04:24.856Z,25.30
2022-08-11T10:07:04.599Z,25.40
2022-08-11T10:09:39.417Z,25.40
2022-08-11T10:12:11.027Z,25.40
2022-08-11T10:15:04.340Z,25.50
2022-08-11T10:17:36.371Z,25.50
2022-08-11T10:20:07.606Z,25.50
2022-08-11T10:22:54.358Z,25.50
2022-08-11T10:25:40.660Z,25.60
2022-08-11T10:28:28.775Z,25.60
2022-08-11T10:31:15.197Z,25.70
2022-08-11T10:34:00.315Z,25.70
2022-08-11T10:36:32.781Z,25.70
2022-08-11T10:39:02.290Z,25.80
2022-08-11T10:42:06.436Z,25.80
2022-08-11T10:44:44.334Z,25.80
2022-08-11T10:47:32.360Z,25.80
2022-08-11T10:50:18.721Z,25.80
2022-08-11T10:53:06.995Z,25.80
2022-08-11T10:55:53.832Z,25.80
2022-08-11T10:58:43.854Z,25.90
2022-08-11T11:01:11.637Z,25.90
2022-08-11T11:03:39.100Z,26.00
2022-08-11T11:06:12.797Z,26.00
2022-08-11T11:09:11.147Z,26.00
2022-08-11T11:11:59.594Z,25.90
2022-08-11T11:14:56.389Z,25.90
2022-08-11T11:17:48.609Z,25.90
2022-08-11T11:20:34.634Z,25.90
2022-08-11T11:23:33.684Z,25.90
2022-08-11T11:26:27.463Z,25.90
2022-08-11T11:29:20.607Z,26.00
2022-08-11T11:32:14.527Z,26.00
2022-08-11T11:34:52.857Z,26.00
2022-08-11T11:37:22.922Z,26.00
2022-08-11T11:39:50.184Z,26.00
2022-08-11T11:42:18.478Z,26.00
2022-08-11T11:44:46.842Z,26.00
2022-08-11T11:47:16.143Z,26.10
2022-08-11T11:49:47.354Z,26.10
2022-08-11T11:52:18.481Z,26.10
2022-08-11T11:54:52.031Z,26.10
2022-08-11T11:57:41.461Z,26.10
2022-08-11T12:00:48.755Z,26.10
2022-08-11T12:03:17.859Z,26.30
2022-08-11T12:05:47.148Z,26.20
2022-08-11T12:08:19.323Z,26.30
2022-08-11T12:11:15.588Z,26.40
2022-08-11T12:13:45.479Z,26.40
2022-08-11T12:16:33.759Z,26.40
2022-08-11T12:19:05.219Z,26.40
2022-08-11T12:21:34.215Z,26.40
2022-08-11T12:24:21.550Z,26.50
2022-08-11T12:27:15.245Z,26.50
2022-08-11T12:29:36.393Z,26.40
2022-08-11T12:32:10.564Z,26.40
2022-08-11T12:34:37.585Z,26.40
2022-08-11T12:37:10.729Z,26.40
2022-08-11T12:40:15.931Z,26.50
2022-08-11T12:43:37.291Z,26.50
2022-08-11T12:46:13.884Z,26.50
2022-08-11T12:49:04.231Z,26.60
2022-08-11T12:52:12.925Z,26.50
2022-08-11T12:54:47.943Z,26.60
2022-08-11T12:57:50.855Z,26.50
2022-08-11T13:00:37.903Z,26.60
2022-08-11T13:03:25.689Z,26.60
2022-08-11T13:05:55.746Z,26.60
2022-08-11T13:08:25.009Z,26.70
2022-08-11T13:11:12.261Z,26.70
2022-08-11T13:13:54.136Z,26.70
2022-08-11T13:16:25.126Z,26.60
2022-08-11T13:18:53.249Z,26.80
2022-08-11T13:21:21.680Z,26.90
2022-08-11T13:24:00.873Z,26.90
2022-08-11T13:26:43.479Z,27.10
2022-08-11T13:29:20.015Z,27.00
2022-08-11T13:31:47.994Z,27.00
2022-08-11T13:34:20.032Z,27.10
2022-08-11T13:36:53.024Z,27.10
2022-08-11T13:39:24.205Z,27.20
2022-08-11T13:41:55.111Z,27.10
2022-08-11T13:44:25.866Z,27.10
2022-08-11T13:47:02.342Z,27.20
2022-08-11T13:49:31.251Z,27.50
2022-08-11T13:51:59.252Z,27.50
2022-08-11T13:54:30.242Z,27.40
2022-08-11T13:57:00.950Z,27.50
2022-08-11T13:59:29.777Z,27.50
2022-08-11T14:02:21.671Z,27.50
2022-08-11T14:04:57.914Z,27.50
2022-08-11T14:07:37.597Z,27.50
2022-08-11T14:10:07.544Z,27.50
2022-08-11T14:12:55.725Z,27.50
2022-08-11T14:15:34.789Z,27.50
2022-08-11T14:21:14.604Z,27.60
2022-08-11T14:23:44.766Z,27.80
2022-08-11T14:26:28.507Z,27.60
2022-08-11T14:29:02.782Z,27.50
2022-08-11T14:31:31.910Z,27.50
2022-08-11T14:34:02.551Z,27.70
2022-08-11T14:36:35.537Z,27.80
2022-08-11T14:39:06.845Z,27.70
2022-08-11T14:42:11.464Z,27.80
2022-08-11T14:45:23.388Z,27.80
2022-08-11T14:47:53.443Z,27.80
2022-08-11T14:50:25.834Z,28.00
2022-08-11T14:53:01.273Z,28.20
2022-08-11T14:55:48.669Z,28.30
2022-08-11T14:58:18.274Z,28.40
2022-08-11T15:00:46.330Z,28.40
2022-08-11T15:03:15.388Z,28.30
2022-08-11T15:05:55.835Z,28.30
2022-08-11T15:08:48.167Z,28.40
2022-08-11T15:11:36.499Z,28.40
2022-08-11T15:14:07.311Z,28.40
2022-08-11T15:16:58.653Z,28.70
2022-08-11T15:19:27.350Z,28.70
2022-08-11T15:22:12.602Z,28.90
2022-08-11T15:24:39.315Z,28.80
2022-08-11T15:27:29.863Z,28.60
2022-08-11T15:30:32.460Z,28.60
2022-08-11T15:33:22.895Z,28.60
2022-08-11T15:36:10.048Z,28.60
2022-08-11T15:38:42.712Z,28.70
2022-08-11T15:41:32.331Z,28.80
2022-08-11T15:44:18.774Z,29.00
2022-08-11T15:46:49.309Z,29.00
2022-08-11T15:50:11.270Z,28.90
2022-08-11T15:52:19.432Z,29.00
2022-08-11T15:54:49.045Z,29.10
2022-08-11T15:57:40.028Z,29.20
2022-08-11T16:00:26.843Z,29.30
2022-08-11T16:02:54.957Z,29.20
2022-08-11T16:05:45.645Z,29.30
2022-08-11T16:08:15.446Z,29.70
2022-08-11T16:10:44.085Z,29.70
2022-08-11T16:13:13.766Z,29.60
2022-08-11T16:16:14.300Z,29.80
2022-08-11T16:18:57.207Z,30.00
2022-08-11T16:21:36.170Z,30.00
2022-08-11T16:26:30.474Z,30.20
2022-08-11T16:27:13.050Z,30.40
2022-08-11T16:29:47.655Z,30.60
2022-08-11T16:32:21.688Z,30.30
2022-08-11T16:35:12.036Z,30.30
2022-08-11T16:37:58.822Z,30.60
2022-08-11T16:40:25.921Z,30.80
2022-08-11T16:43:12.514Z,31.10
2022-08-11T16:45:59.437Z,31.30
2022-08-11T16:48:36.352Z,31.50
2022-08-11T16:51:10.513Z,31.90
2022-08-11T16:53:59.765Z,32.30
2022-08-11T16:56:33.638Z,32.60
2022-08-11T16:59:18.297Z,32.70
2022-08-11T17:01:53.257Z,32.80
2022-08-11T17:04:43.716Z,32.80
2022-08-11T17:07:42.107Z,32.90
2022-08-11T17:10:52.658Z,32.90
2022-08-11T17:13:36.835Z,33.20
2022-08-11T17:16:13.123Z,33.30
2022-08-11T17:18:48.005Z,33.50
2022-08-11T17:21:22.915Z,33.50
2022-08-11T17:23:54.962Z,33.40
2022-08-11T17:26:58.690Z,33.60
2022-08-11T17:29:32.094Z,33.80
2022-08-11T17:32:20.759Z,33.60
2022-08-11T17:35:07.835Z,33.20
2022-08-11T17:37:36.524Z,32.80
2022-08-11T17:40:06.893Z,32.60
2022-08-11T17:43:01.636Z,32.50
2022-08-11T17:46:00.575Z,32.80
2022-08-11T17:48:29.670Z,33.10
2022-08-11T17:51:04.252Z,33.40
2022-08-11T17:54:23.973Z,33.60
2022-08-11T17:57:21.406Z,33.80
2022-08-11T17:59:53.567Z,33.70
2022-08-11T18:02:46.229Z,33.60
2022-08-11T18:05:14.137Z,33.40
2022-08-11T18:08:01.579Z,32.90
2022-08-11T18:10:49.600Z,32.40
2022-08-11T18:13:40.617Z,32.10
2022-08-11T18:16:27.046Z,31.80
2022-08-11T18:19:15.462Z,31.40
2022-08-11T18:22:14.367Z,31.00
2022-08-11T18:25:07.980Z,30.40
2022-08-11T18:27:56.997Z,29.80
2022-08-11T18:30:43.705Z,29.40
2022-08-11T18:36:42.345Z,29.10
2022-08-11T18:39:30.662Z,29.00
2022-08-11T18:42:29.184Z,28.80
2022-08-11T18:45:31.952Z,28.80
2022-08-11T18:48:39.011Z,28.80
2022-08-11T18:51:31.335Z,28.70
2022-08-11T18:54:30.854Z,28.70
2022-08-11T18:57:20.731Z,28.70
2022-08-11T19:00:07.295Z,28.60
2022-08-11T19:02:55.322Z,28.50
2022-08-11T19:06:31.918Z,28.50
2022-08-11T19:08:50.722Z,28.40
2022-08-11T19:11:43.558Z,28.40
2022-08-11T19:14:31.478Z,28.50
2022-08-11T19:17:45.126Z,28.50
2022-08-11T19:20:29.075Z,28.40
2022-08-11T19:23:16.086Z,28.40
2022-08-11T19:26:06.015Z,28.30
2022-08-11T19:28:54.073Z,28.30
2022-08-11T19:31:44.310Z,28.20
2022-08-11T19:34:43.581Z,28.20
2022-08-11T19:37:30.188Z,28.20
2022-08-11T19:40:27.336Z,28.20
2022-08-11T19:43:23.789Z,28.20
2022-08-11T19:46:16.812Z,28.20
2022-08-11T19:49:09.710Z,28.20
2022-08-11T19:51:56.773Z,28.10
2022-08-11T19:54:46.903Z,28.10
2022-08-11T19:57:39.357Z,28.10
2022-08-11T20:00:30.217Z,28.00
2022-08-11T20:03:16.990Z,27.80
2022-08-11T20:06:03.897Z,27.70
2022-08-11T20:08:52.965Z,27.50
2022-08-11T20:11:41.256Z,27.50
2022-08-11T20:14:28.134Z,27.40
2022-08-11T20:17:15.007Z,27.40
2022-08-11T20:22:51.282Z,27.10
2022-08-11T20:25:38.310Z,27.10
2022-08-11T20:28:25.153Z,27.10
2022-08-11T20:31:11.835Z,27.10
2022-08-11T20:33:58.023Z,27.00
2022-08-11T20:36:45.780Z,27.00
2022-08-11T20:39:36.210Z,26.90
2022-08-11T20:42:26.156Z,26.80
2022-08-11T20:45:16.699Z,26.70
2022-08-11T20:48:06.802Z,26.70
2022-08-11T20:50:54.985Z,26.60
2022-08-11T20:53:43.307Z,26.60
2022-08-11T20:56:30.197Z,26.60
2022-08-11T20:59:21.983Z,26.50
2022-08-11T21:05:19.597Z,26.50
2022-08-11T21:08:25.429Z,26.50
2022-08-11T21:11:13.155Z,26.50
2022-08-11T21:14:01.637Z,26.50
2022-08-11T21:16:53.446Z,26.50
2022-08-11T21:19:59.773Z,26.50
2022-08-11T21:23:19.997Z,26.50
2022-08-11T21:26:23.750Z,26.50
2022-08-11T21:29:12.868Z,26.60
2022-08-11T21:32:00.293Z,26.60
2022-08-11T21:34:46.411Z,26.60
2022-08-11T21:37:34.240Z,26.50
2022-08-11T21:40:21.617Z,26.50
2022-08-11T21:43:08.543Z,26.50
2022-08-11T21:45:57.209Z,26.50
2022-08-11T21:48:47.485Z,26.50
2022-08-11T21:51:32.905Z,26.50
2022-08-11T21:54:19.989Z,26.50
2022-08-11T21:57:06.547Z,26.50
2022-08-11T22:00:10.767Z,26.50
2022-08-11T22:03:03.376Z,26.50
2022-08-11T22:05:51.069Z,26.50
2022-08-11T22:08:37.003Z,26.60
2022-08-11T22:11:31.792Z,26.60
2022-08-11T22:14:19.065Z,26.60
2022-08-11T22:17:04.120Z,26.60
2022-08-11T22:19:50.414Z,26.60
2022-08-11T22:22:35.700Z,26.50
2022-08-11T22:25:39.429Z,26.50
2022-08-11T22:28:37.600Z,26.50
2022-08-11T22:31:24.387Z,26.50
2022-08-11T22:34:09.845Z,26.40
2022-08-11T22:36:56.261Z,26.40
2022-08-11T22:39:43.323Z,26.30
2022-08-11T22:42:34.012Z,26.30
2022-08-11T22:45:20.089Z,26.30
2022-08-11T22:48:07.543Z,26.20
2022-08-11T22:50:55.417Z,26.20
2022-08-11T22:53:55.255Z,26.20
2022-08-11T22:56:45.481Z,26.20
2022-08-11T22:59:32.806Z,26.20
2022-08-11T23:02:18.308Z,26.20
2022-08-11T23:05:03.752Z,26.20
2022-08-11T23:07:50.551Z,26.10
2022-08-11T23:10:38.814Z,26.10
2022-08-11T23:13:25.899Z,26.10
2022-08-11T23:16:14.718Z,26.10
2022-08-11T23:19:00.582Z,26.10
2022-08-11T23:21:47.030Z,26.10
2022-08-11T23:24:32.887Z,26.10
2022-08-11T23:27:20.483Z,26.10
2022-08-11T23:30:09.137Z,26.10
2022-08-11T23:32:55.090Z,26.10
2022-08-11T23:35:53.996Z,26.10
2022-08-11T23:38:42.356Z,26.00
2022-08-11T23:41:27.610Z,26.00
2022-08-11T23:44:13.708Z,26.00
2022-08-11T23:46:59.944Z,26.00
2022-08-11T23:49:46.871Z,26.00
2022-08-11T23:52:33.813Z,26.00
2022-08-11T23:55:19.057Z,26.00
2022-08-11T23:58:04.649Z,25.90
